Time;durP1;ratioP1;P1;durP2;ratioP2;P2;SDS_P1;SDS_P2;PMS_P1;PMS_P2;Temp;Humidity;BMP_temperature;BMP_pressure;BME280_temperature;BME280_humidity;BME280_pressure;Samples;Min_cycle;Max_cycle;Signal;HPM_P1;HPM_P2
2021/12/14 00:01:10;;;;;;;13.63;12.02;;;9.60;78.90;;;;;;5032522;28;20037;-75
2021/12/14 00:03:40;;;;;;;14.10;12.60;;;9.70;78.80;;;;;;5030914;28;20037;-66
2021/12/14 00:06:06;;;;;;;13.70;12.20;;;9.70;78.60;;;;;;5015401;28;20022;-67
2021/12/14 00:08:36;;;;;;;13.55;12.05;;;9.80;78.50;;;;;;5031523;28;20377;-68
2021/12/14 00:13:59;;;;;;;13.90;12.40;;;9.80;78.10;;;;;;5031632;28;20144;-70
2021/12/14 00:16:19;;;;;;;17.05;12.75;;;9.80;78.00;;;;;;5031788;28;20052;-72
2021/12/14 00:18:45;;;;;;;14.55;12.88;;;9.80;78.10;;;;;;5031139;28;20056;-65
2021/12/14 00:21:20;;;;;;;14.93;12.82;;;9.70;78.20;;;;;;5014756;28;20082;-73
2021/12/14 00:24:07;;;;;;;13.80;12.40;;;9.80;78.30;;;;;;5031687;28;20393;-74
2021/12/14 00:26:40;;;;;;;13.90;12.23;;;9.80;78.20;;;;;;5032052;28;20025;-74
2021/12/14 00:29:09;;;;;;;15.27;13.68;;;9.90;78.10;;;;;;5014655;28;20034;-64
2021/12/14 00:31:36;;;;;;;15.57;12.43;;;9.90;78.00;;;;;;5031744;28;20205;-70
2021/12/14 00:34:05;;;;;;;14.18;11.93;;;9.90;77.80;;;;;;5032358;28;20029;-69
2021/12/14 00:36:31;;;;;;;13.32;11.77;;;10.00;77.70;;;;;;5031624;28;20029;-70
2021/12/14 00:38:57;;;;;;;13.82;11.90;;;9.90;77.60;;;;;;5014721;28;20025;-75
2021/12/14 00:41:31;;;;;;;14.63;12.50;;;9.90;77.70;;;;;;5032315;28;20028;-69
2021/12/14 00:43:57;;;;;;;;;;;9.90;77.70;;;;;;5032259;28;20044;-67
2021/12/14 00:46:26;;;;;;;13.85;11.98;;;9.90;77.70;;;;;;5032012;28;20019;-68
2021/12/14 00:48:52;;;;;;;15.18;12.82;;;9.80;77.70;;;;;;5031021;28;20100;-66
2021/12/14 00:51:27;;;;;;;15.07;13.38;;;9.80;77.90;;;;;;5013930;28;20025;-75
2021/12/14 00:54:12;;;;;;;14.93;13.10;;;9.80;78.10;;;;;;5031247;28;20099;-76
2021/12/14 00:56:40;;;;;;;14.63;12.38;;;9.80;78.10;;;;;;5031133;28;20034;-69
2021/12/14 00:59:08;;;;;;;15.18;12.70;;;9.80;78.30;;;;;;5031536;28;20037;-73
2021/12/14 01:01:44;;;;;;;17.15;13.88;;;9.80;78.30;;;;;;5031379;28;20032;-70
2021/12/14 01:04:21;;;;;;;17.33;14.60;;;9.80;78.40;;;;;;5032258;28;20044;-68
2021/12/14 01:06:47;;;;;;;21.17;15.98;;;9.80;78.50;;;;;;5031524;28;20032;-77
2021/12/14 01:09:19;;;;;;;22.58;16.92;;;9.90;78.60;;;;;;5032139;28;20084;-69
2021/12/14 01:11:47;;;;;;;21.77;16.55;;;9.90;78.50;;;;;;5034692;28;20028;-76
2021/12/14 01:14:29;;;;;;;16.05;13.90;;;9.90;78.50;;;;;;5017882;28;20049;-71
2021/12/14 01:17:25;;;;;;;15.75;13.55;;;9.90;78.40;;;;;;5035026;28;20055;-72
2021/12/14 01:19:57;;;;;;;14.40;12.90;;;9.90;78.30;;;;;;5034955;28;20017;-67
2021/12/14 01:22:40;;;;;;;13.40;12.00;;;9.90;78.50;;;;;;5035717;28;20037;-71
2021/12/14 01:25:31;;;;;;;13.15;11.65;;;10.00;78.50;;;;;;5035631;28;20025;-70
2021/12/14 01:27:59;;;;;;;14.40;12.07;;;9.90;78.40;;;;;;5034553;28;20161;-68
2021/12/14 01:30:47;;;;;;;14.30;12.63;;;9.90;78.30;;;;;;5017745;28;20065;-72
2021/12/14 01:33:15;;;;;;;13.63;11.27;;;9.90;78.50;;;;;;5035842;28;20025;-69
2021/12/14 01:35:44;;;;;;;13.02;11.45;;;9.90;78.60;;;;;;5017028;28;20025;-75
2021/12/14 01:38:34;;;;;;;14.32;12.68;;;9.90;78.70;;;;;;5035712;28;20053;-72
2021/12/14 01:41:08;;;;;;;13.80;11.75;;;9.90;78.60;;;;;;5035106;28;20462;-74
2021/12/14 01:43:40;;;;;;;14.00;11.65;;;9.90;78.70;;;;;;5034228;28;20086;-75
2021/12/14 01:46:30;;;;;;;13.20;11.77;;;9.90;78.70;;;;;;5034513;28;20033;-67
2021/12/14 01:48:57;;;;;;;14.18;12.10;;;9.90;78.70;;;;;;5034366;28;20025;-73
2021/12/14 01:51:24;;;;;;;13.93;12.05;;;9.90;78.70;;;;;;5033891;28;20065;-73
2021/12/14 01:53:52;;;;;;;13.57;12.10;;;9.90;78.80;;;;;;5016456;28;20296;-70
2021/12/14 01:56:23;;;;;;;14.18;11.98;;;9.90;78.90;;;;;;5034837;28;20037;-71
2021/12/14 01:58:55;;;;;;;14.25;12.07;;;9.90;78.90;;;;;;5016630;28;20026;-74
2021/12/14 02:01:25;;;;;;;15.32;12.45;;;9.90;79.00;;;;;;5016850;28;20060;-70
2021/12/14 02:03:53;;;;;;;14.27;12.63;;;10.00;78.90;;;;;;5033849;28;20036;-72
2021/12/14 02:06:30;;;;;;;14.07;12.23;;;10.00;78.90;;;;;;5016601;28;20033;-71
2021/12/14 02:09:07;;;;;;;13.32;11.77;;;10.00;78.70;;;;;;5016935;28;20037;-73
2021/12/14 02:11:36;;;;;;;13.90;11.57;;;10.00;78.60;;;;;;5016296;28;20021;-77
2021/12/14 02:14:04;;;;;;;14.90;11.93;;;10.00;78.70;;;;;;5034134;28;20049;-72
2021/12/14 02:16:30;;;;;;;15.95;11.65;;;10.00;78.70;;;;;;5034026;28;20040;-64
2021/12/14 02:19:02;;;;;;;14.00;11.85;;;10.00;78.70;;;;;;5034238;28;20067;-67
2021/12/14 02:21:29;;;;;;;14.05;11.80;;;10.00;78.60;;;;;;5033487;28;20030;-66
2021/12/14 02:23:56;;;;;;;14.05;11.85;;;9.90;78.50;;;;;;5016034;28;20419;-63
2021/12/14 02:26:41;;;;;;;15.55;11.93;;;9.90;78.70;;;;;;5034207;28;20041;-66
2021/12/14 02:29:30;;;;;;;13.40;11.88;;;9.90;78.90;;;;;;5016545;28;20048;-64
2021/12/14 02:32:07;;;;;;;14.40;12.18;;;9.90;78.80;;;;;;5018182;28;20108;-61
2021/12/14 02:34:40;;;;;;;12.75;10.68;;;9.90;78.80;;;;;;5033349;28;20021;-63
2021/12/14 02:37:06;;;;;;;14.43;12.47;;;9.90;78.80;;;;;;5033506;28;20025;-66
2021/12/14 02:42:10;;;;;;;14.77;11.55;;;9.90;78.80;;;;;;5033885;28;20417;-69
2021/12/14 02:44:38;;;;;;;14.27;12.00;;;9.90;78.80;;;;;;5033197;28;20036;-65
2021/12/14 02:47:10;;;;;;;13.57;11.82;;;9.90;78.60;;;;;;5016142;28;20033;-64
2021/12/14 02:49:38;;;;;;;13.30;11.32;;;9.80;78.70;;;;;;5015593;28;20174;-65
2021/12/14 02:52:08;;;;;;;14.23;12.05;;;9.90;78.80;;;;;;5033587;28;20029;-67
2021/12/14 02:54:45;;;;;;;14.48;11.55;;;9.90;78.70;;;;;;5032770;28;20028;-63
2021/12/14 02:57:26;;;;;;;12.57;11.27;;;9.90;78.50;;;;;;5033412;28;20521;-62
2021/12/14 02:59:55;;;;;;;13.10;10.70;;;9.90;78.50;;;;;;5033065;28;20029;-63
2021/12/14 03:02:31;;;;;;;13.93;11.27;;;10.00;78.50;;;;;;5015898;28;20033;-69
2021/12/14 03:05:38;;;;;;;12.88;11.18;;;10.00;78.20;;;;;;5033223;28;20486;-63
2021/12/14 03:08:09;;;;;;;13.48;11.43;;;9.90;78.30;;;;;;5032427;28;20089;-68
2021/12/14 03:10:55;;;;;;;15.20;11.27;;;9.80;78.80;;;;;;5032436;28;20025;-60
2021/12/14 03:13:23;;;;;;;13.20;11.30;;;9.90;78.80;;;;;;5032948;28;20053;-63
2021/12/14 03:15:55;;;;;;;13.88;11.40;;;9.90;78.60;;;;;;5032741;28;20022;-68
2021/12/14 03:18:31;;;;;;;13.43;11.50;;;10.00;78.60;;;;;;5033163;28;20138;-63
2021/12/14 03:21:12;;;;;;;14.30;11.63;;;10.00;78.30;;;;;;5032682;28;20025;-66
2021/12/14 03:23:48;;;;;;;14.00;11.38;;;10.00;78.30;;;;;;5014700;28;20080;-68
2021/12/14 03:26:20;;;;;;;14.82;12.55;;;10.10;78.40;;;;;;5032762;28;20100;-70
2021/12/14 03:28:51;;;;;;;13.93;11.35;;;10.00;78.40;;;;;;5015052;28;20641;-71
2021/12/14 03:31:33;;;;;;;14.52;12.63;;;10.00;78.50;;;;;;5015484;28;20057;-63
2021/12/14 03:34:07;;;;;;;13.75;12.20;;;10.10;78.40;;;;;;5032004;28;20033;-64
2021/12/14 03:36:39;;;;;;;15.57;12.18;;;10.10;78.50;;;;;;5014708;28;20470;-65
2021/12/14 03:39:27;;;;;;;14.98;12.75;;;10.20;78.40;;;;;;4998827;28;20041;-62
2021/12/14 03:42:15;;;;;;;13.63;11.93;;;10.20;78.30;;;;;;5031980;28;20051;-64
2021/12/14 03:44:43;;;;;;;20.92;14.55;;;10.20;78.30;;;;;;5014260;28;20101;-65
2021/12/14 03:47:21;;;;;;;55.40;27.23;;;10.20;78.20;;;;;;5032930;28;20037;-66
2021/12/14 03:49:49;;;;;;;12.60;10.95;;;10.20;78.00;;;;;;5032183;28;20030;-64
2021/12/14 03:52:18;;;;;;;14.25;11.07;;;10.20;77.90;;;;;;5014607;28;20025;-67
2021/12/14 03:54:45;;;;;;;14.60;11.00;;;10.20;78.10;;;;;;5031804;28;20033;-64
2021/12/14 03:57:11;;;;;;;12.20;9.88;;;10.20;78.10;;;;;;5032554;28;20036;-64
2021/12/14 03:59:37;;;;;;;22.05;13.70;;;10.20;78.20;;;;;;5031805;28;20029;-64
2021/12/14 04:02:06;;;;;;;34.05;18.05;;;10.30;78.40;;;;;;5014175;28;20033;-63
2021/12/14 04:04:37;;;;;;;25.05;15.45;;;10.30;78.40;;;;;;5031859;28;20083;-66
2021/12/14 04:07:09;;;;;;;16.20;12.25;;;10.20;78.50;;;;;;5032342;28;20025;-63
2021/12/14 04:09:36;;;;;;;24.20;16.75;;;10.20;79.00;;;;;;5031864;28;20492;-61
2021/12/14 04:12:06;;;;;;;16.65;12.73;;;10.30;79.20;;;;;;5014670;28;20028;-65
2021/12/14 04:14:36;;;;;;;15.85;12.65;;;10.30;79.20;;;;;;5031628;28;20077;-66
2021/12/14 04:17:03;;;;;;;14.70;11.48;;;10.30;79.20;;;;;;5032330;28;20033;-65
2021/12/14 04:19:30;;;;;;;15.75;12.32;;;10.30;79.20;;;;;;5031940;28;20421;-64
2021/12/14 04:22:00;;;;;;;14.55;11.75;;;10.30;79.20;;;;;;5014130;28;20025;-67
2021/12/14 04:24:29;;;;;;;14.52;12.75;;;10.30;79.40;;;;;;5015169;28;20041;-65
2021/12/14 04:26:56;;;;;;;14.35;12.20;;;10.20;79.60;;;;;;5031792;28;20386;-68
2021/12/14 04:29:22;;;;;;;14.15;10.88;;;10.30;79.70;;;;;;5032011;28;20025;-64
2021/12/14 04:31:50;;;;;;;24.77;15.02;;;10.30;79.60;;;;;;5031768;28;20048;-63
2021/12/14 04:34:17;;;;;;;36.03;19.63;;;10.30;79.40;;;;;;5031571;28;20072;-68
2021/12/14 04:36:47;;;;;;;15.68;12.13;;;10.30;79.10;;;;;;5031809;28;20466;-65
2021/12/14 04:53:11;;;;;;;10.32;8.55;;;10.30;78.80;;;;;;5035947;28;20033;-64
2021/12/14 04:55:45;;;;;;;12.25;9.23;;;10.30;78.70;;;;;;5017643;28;20025;-67
2021/12/14 04:58:13;;;;;;;11.32;9.07;;;10.30;78.60;;;;;;5035889;28;20017;-66
2021/12/14 05:00:49;;;;;;;10.50;8.50;;;10.30;79.20;;;;;;5035358;28;20028;-65
2021/12/14 05:03:23;;;;;;;18.38;13.57;;;10.40;78.70;;;;;;5018035;28;20037;-64
2021/12/14 05:05:57;;;;;;;9.07;7.90;;;10.40;78.60;;;;;;5035224;28;20037;-65
2021/12/14 05:11:06;;;;;;;9.45;8.23;;;10.30;78.70;;;;;;5035033;28;20021;-66
2021/12/14 05:13:36;;;;;;;10.02;8.68;;;10.30;78.70;;;;;;5017644;28;20064;-64
2021/12/14 05:16:03;;;;;;;11.63;8.93;;;10.30;78.80;;;;;;5017703;28;20152;-65
2021/12/14 05:18:30;;;;;;;10.00;8.48;;;10.30;78.90;;;;;;5017506;28;20032;-62
2021/12/14 05:20:58;;;;;;;9.68;8.27;;;10.30;78.80;;;;;;5017012;28;20079;-62
2021/12/14 05:23:33;;;;;;;9.75;8.57;;;10.30;78.80;;;;;;5000717;28;20060;-63
2021/12/14 05:26:02;;;;;;;10.05;8.07;;;10.40;78.70;;;;;;5017514;28;20136;-60
2021/12/14 05:28:28;;;;;;;11.98;7.82;;;10.40;78.70;;;;;;5017395;28;20049;-62
2021/12/14 05:30:57;;;;;;;12.18;10.48;;;10.40;78.70;;;;;;5034576;28;20032;-62
2021/12/14 05:33:28;;;;;;;12.27;9.82;;;10.40;78.60;;;;;;5017464;28;20099;-64
2021/12/14 05:36:01;;;;;;;10.00;8.32;;;10.50;78.50;;;;;;5034949;28;20026;-61
2021/12/14 05:38:46;;;;;;;10.52;8.65;;;10.50;78.20;;;;;;5035471;28;20030;-67
2021/12/14 05:44:01;;;;;;;10.60;8.57;;;10.50;78.30;;;;;;5034864;28;20551;-62
2021/12/14 05:46:28;;;;;;;9.50;8.18;;;10.50;78.10;;;;;;5035124;28;20024;-66
2021/12/14 05:49:24;;;;;;;10.43;8.50;;;10.60;78.20;;;;;;5016698;28;20331;-71
2021/12/14 05:51:53;;;;;;;10.85;8.05;;;10.60;78.00;;;;;;5014561;28;20076;-62
2021/12/14 05:54:24;;;;;;;12.15;8.60;;;10.50;78.00;;;;;;5035212;28;20025;-65
2021/12/14 05:56:53;;;;;;;12.15;8.98;;;10.60;77.90;;;;;;5015514;28;20025;-62
2021/12/14 05:59:25;;;;;;;9.80;8.50;;;10.50;77.80;;;;;;5034431;28;20028;-63
2021/12/14 06:01:52;;;;;;;10.32;8.52;;;10.50;78.20;;;;;;5034435;28;20113;-62
2021/12/14 06:04:18;;;;;;;12.13;9.25;;;10.50;78.40;;;;;;5033806;28;20064;-69
2021/12/14 06:06:49;;;;;;;10.10;8.55;;;10.60;78.40;;;;;;5033977;28;20029;-62
2021/12/14 06:09:19;;;;;;;10.27;8.77;;;10.60;78.30;;;;;;5034222;28;20045;-62
2021/12/14 06:11:47;;;;;;;12.63;9.05;;;10.60;78.20;;;;;;5016550;28;20507;-67
2021/12/14 06:14:23;;;;;;;14.93;9.73;;;10.60;78.00;;;;;;5016328;28;20053;-61
2021/12/14 06:16:53;;;;;;;14.05;9.02;;;10.60;78.30;;;;;;5033807;28;20171;-65
2021/12/14 06:19:33;;;;;;;12.73;9.77;;;10.50;78.30;;;;;;5016320;28;20612;-65
2021/12/14 06:22:15;;;;;;;11.75;9.00;;;10.50;78.50;;;;;;5016028;28;20116;-62
2021/12/14 06:24:48;;;;;;;12.50;9.65;;;10.50;78.80;;;;;;5033701;28;20044;-62
2021/12/14 06:27:17;;;;;;;13.90;8.77;;;10.50;78.60;;;;;;5033899;28;20462;-65
2021/12/14 06:29:54;;;;;;;10.05;8.52;;;10.60;78.70;;;;;;5015630;28;20083;-63
2021/12/14 06:32:31;;;;;;;11.48;8.57;;;10.60;78.70;;;;;;5033461;28;20029;-62
2021/12/14 06:35:11;;;;;;;9.80;8.23;;;10.60;78.50;;;;;;4998982;28;20203;-63
2021/12/14 06:40:54;;;;;;;10.77;9.07;;;10.60;78.20;;;;;;5033562;28;20033;-62
2021/12/14 06:43:26;;;;;;;12.18;9.18;;;10.60;78.30;;;;;;5032239;28;20048;-61
2021/12/14 06:45:59;;;;;;;10.82;8.75;;;10.60;78.20;;;;;;5032670;28;20028;-63
2021/12/14 06:48:42;;;;;;;15.80;10.65;;;10.70;78.20;;;;;;5033414;28;20470;-61
2021/12/14 06:51:13;;;;;;;12.77;8.98;;;10.60;78.10;;;;;;5015614;28;20512;-62
2021/12/14 06:53:40;;;;;;;12.07;9.00;;;10.60;78.00;;;;;;5032576;28;20037;-69
2021/12/14 06:56:09;;;;;;;14.10;9.50;;;10.60;78.00;;;;;;5033031;28;20067;-61
2021/12/14 06:58:52;;;;;;;12.30;9.80;;;10.70;78.10;;;;;;5033472;28;20025;-69
2021/12/14 07:01:22;;;;;;;14.10;9.30;;;10.70;78.00;;;;;;5030688;28;20079;-66
2021/12/14 07:03:58;;;;;;;15.55;9.70;;;10.70;77.80;;;;;;4998338;28;20033;-63
2021/12/14 07:06:34;;;;;;;13.07;9.98;;;10.70;77.70;;;;;;5032816;28;20054;-63
2021/12/14 07:09:22;;;;;;;11.80;9.45;;;10.60;77.60;;;;;;5032313;28;20025;-62
2021/12/14 07:12:08;;;;;;;23.00;10.20;;;10.60;77.70;;;;;;5032141;28;20105;-63
2021/12/14 07:14:36;;;;;;;14.23;10.98;;;10.60;77.70;;;;;;5032876;28;20120;-63
2021/12/14 07:17:15;;;;;;;17.00;10.23;;;10.60;77.80;;;;;;5032907;28;20030;-60
2021/12/14 07:19:51;;;;;;;14.93;11.38;;;10.60;77.80;;;;;;5014104;28;20026;-63
2021/12/14 07:22:25;;;;;;;17.13;10.20;;;10.60;77.60;;;;;;5013645;28;20132;-65
2021/12/14 07:25:14;;;;;;;;;;;10.70;77.50;;;;;;5014698;28;20449;-60
2021/12/14 07:27:42;;;;;;;12.45;9.63;;;10.70;77.00;;;;;;5003584;28;19912;-68
2021/12/14 07:30:27;;;;;;;12.05;9.98;;;10.70;77.00;;;;;;5032988;28;20022;-61
2021/12/14 07:33:08;;;;;;;14.27;10.13;;;10.70;77.80;;;;;;5031474;28;20057;-62
2021/12/14 07:36:11;;;;;;;12.43;9.70;;;10.70;77.10;;;;;;5014746;28;20029;-66
2021/12/14 07:39:04;;;;;;;13.13;9.98;;;10.70;77.00;;;;;;4951476;28;20027;-68
2021/12/14 07:41:35;;;;;;;13.82;9.80;;;10.70;77.10;;;;;;5013637;28;20029;-68
2021/12/14 07:44:23;;;;;;;16.80;10.25;;;10.80;77.10;;;;;;5013622;28;20044;-68
2021/12/14 07:47:19;;;;;;;14.98;11.18;;;10.80;76.90;;;;;;5031792;28;20052;-64
2021/12/14 07:49:56;;;;;;;19.58;10.35;;;10.90;76.70;;;;;;5031277;28;20029;-65
2021/12/14 07:52:25;;;;;;;11.38;9.80;;;10.90;76.40;;;;;;5031930;28;20058;-63
2021/12/14 07:54:55;;;;;;;12.32;9.77;;;10.90;76.40;;;;;;5031162;28;20032;-65
2021/12/14 07:57:30;;;;;;;14.13;9.80;;;11.00;76.30;;;;;;5031578;28;20464;-62
2021/12/14 08:00:08;;;;;;;14.95;9.93;;;11.00;76.20;;;;;;5014467;28;20032;-65
2021/12/14 08:02:47;;;;;;;20.90;14.73;;;11.00;76.10;;;;;;5032204;28;20542;-63
2021/12/14 08:05:29;;;;;;;13.55;10.80;;;11.10;76.10;;;;;;5031059;28;20061;-63
2021/12/14 08:07:57;;;;;;;20.05;13.30;;;11.10;75.80;;;;;;5028026;28;20037;-59
2021/12/14 08:10:27;;;;;;;15.95;10.27;;;11.10;75.90;;;;;;5030225;28;20033;-60
2021/12/14 08:13:13;;;;;;;17.58;10.63;;;11.10;75.60;;;;;;5030115;28;20045;-62
2021/12/14 08:15:58;;;;;;;14.45;10.85;;;11.20;75.50;;;;;;5031446;28;20022;-65
2021/12/14 08:18:28;;;;;;;13.57;10.73;;;11.30;75.00;;;;;;5030807;28;20104;-65
2021/12/14 08:20:59;;;;;;;15.20;10.65;;;11.30;74.90;;;;;;5030824;28;20022;-61
2021/12/14 08:23:26;;;;;;;17.00;10.93;;;11.30;74.70;;;;;;5031546;28;20034;-67
2021/12/14 08:26:14;;;;;;;15.82;11.13;;;11.30;74.50;;;;;;5012385;28;20032;-62
2021/12/14 08:28:53;;;;;;;14.48;10.52;;;11.30;74.30;;;;;;5030393;28;20489;-67
2021/12/14 08:31:23;;;;;;;12.32;9.18;;;11.40;74.20;;;;;;5032092;28;20025;-58
2021/12/14 08:34:01;;;;;;;13.07;9.25;;;11.40;74.00;;;;;;5030300;28;20084;-64
2021/12/14 08:36:38;;;;;;;11.43;9.02;;;11.30;73.80;;;;;;5031347;28;20028;-70
2021/12/14 08:39:11;;;;;;;12.00;9.43;;;11.20;74.00;;;;;;5012968;28;20034;-64
2021/12/14 08:41:47;;;;;;;11.87;9.40;;;11.30;74.20;;;;;;5031332;28;20112;-67
2021/12/14 08:44:21;;;;;;;12.73;8.77;;;11.30;74.20;;;;;;5031786;28;20280;-73
2021/12/14 08:46:50;;;;;;;11.40;8.88;;;11.30;73.80;;;;;;5013225;28;20121;-75
2021/12/14 08:49:19;;;;;;;13.55;8.70;;;11.30;73.60;;;;;;5031759;28;20033;-68
2021/12/14 08:51:46;;;;;;;11.77;8.90;;;11.40;73.70;;;;;;5030688;28;20029;-67
2021/12/14 08:54:17;;;;;;;27.70;11.48;;;11.40;73.40;;;;;;5012850;28;20122;-67
2021/12/14 08:56:54;;;;;;;11.52;8.35;;;11.30;73.40;;;;;;5030962;28;20033;-66
2021/12/14 08:59:20;;;;;;;14.15;8.70;;;11.30;73.50;;;;;;5031178;28;20098;-73
2021/12/14 09:02:07;;;;;;;11.82;8.73;;;11.20;73.60;;;;;;5030998;28;20503;-68
2021/12/14 09:04:40;;;;;;;14.15;8.60;;;11.30;73.70;;;;;;5013029;28;20040;-64
2021/12/14 09:07:10;;;;;;;12.38;8.30;;;11.50;73.60;;;;;;5031041;28;20087;-74
2021/12/14 09:09:41;;;;;;;11.80;8.98;;;11.50;73.10;;;;;;5031327;28;20033;-67
2021/12/14 09:12:14;;;;;;;13.10;8.07;;;11.60;72.90;;;;;;5030927;28;20036;-69
2021/12/14 09:14:43;;;;;;;9.70;8.13;;;11.70;72.30;;;;;;5013417;28;20124;-69
2021/12/14 09:17:11;;;;;;;15.75;7.95;;;11.70;72.10;;;;;;5013239;28;20033;-73
2021/12/14 09:19:42;;;;;;;12.98;8.63;;;11.60;72.10;;;;;;5012614;28;20106;-75
2021/12/14 09:22:15;;;;;;;17.17;8.18;;;11.60;72.40;;;;;;5031297;28;20153;-64
2021/12/14 09:24:42;;;;;;;13.30;7.95;;;11.60;72.20;;;;;;5012736;28;20033;-67
2021/12/14 09:27:11;;;;;;;10.50;8.25;;;11.60;72.40;;;;;;5030616;28;20438;-78
2021/12/14 09:29:38;;;;;;;12.68;8.52;;;11.50;72.40;;;;;;5031367;28;20022;-72
2021/12/14 09:32:07;;;;;;;13.40;9.48;;;11.60;72.40;;;;;;5033813;28;20077;-72
2021/12/14 09:34:35;;;;;;;9.93;8.15;;;11.60;72.10;;;;;;5018267;28;20041;-72
2021/12/14 09:37:04;;;;;;;12.20;8.07;;;11.70;71.90;;;;;;5016433;28;20285;-68
2021/12/14 09:39:33;;;;;;;17.00;8.77;;;11.70;72.20;;;;;;5034423;28;20029;-71
2021/12/14 09:42:07;;;;;;;19.17;9.80;;;11.80;72.20;;;;;;5015991;28;20515;-70
2021/12/14 09:44:36;;;;;;;20.63;8.85;;;11.90;71.60;;;;;;5034319;28;20030;-64
2021/12/14 09:47:09;;;;;;;12.18;8.55;;;12.00;71.60;;;;;;5033621;28;20441;-65
2021/12/14 09:49:37;;;;;;;11.90;8.70;;;12.10;71.20;;;;;;5034517;28;20108;-68
2021/12/14 09:52:09;;;;;;;9.82;8.18;;;12.10;70.40;;;;;;5000217;28;20029;-73
2021/12/14 09:54:37;;;;;;;11.98;7.68;;;12.00;70.60;;;;;;5035854;28;20037;-73
2021/12/14 09:57:09;;;;;;;11.68;8.80;;;12.10;70.40;;;;;;5035256;28;20036;-71
2021/12/14 09:59:36;;;;;;;10.77;8.18;;;12.00;70.30;;;;;;5034484;28;20109;-62
2021/12/14 10:02:08;;;;;;;15.05;7.97;;;12.00;70.60;;;;;;5015663;28;20028;-67
2021/12/14 10:04:47;;;;;;;12.40;9.02;;;12.00;70.60;;;;;;5034333;28;20034;-70
2021/12/14 10:07:13;;;;;;;14.90;9.27;;;12.20;70.70;;;;;;5033469;28;20572;-73
2021/12/14 10:09:44;;;;;;;24.92;10.93;;;12.20;70.40;;;;;;5034796;28;20067;-69
2021/12/14 10:14:43;;;;;;;15.90;9.38;;;12.30;69.80;;;;;;5034538;28;20201;-73
2021/12/14 10:17:14;;;;;;;15.25;10.40;;;12.40;69.70;;;;;;5016856;28;20040;-66
2021/12/14 10:19:44;;;;;;;13.57;9.40;;;12.50;69.80;;;;;;5034200;28;20021;-74
2021/12/14 10:22:16;;;;;;;10.57;8.68;;;12.60;69.60;;;;;;5033930;28;20025;-71
2021/12/14 10:24:42;;;;;;;15.52;8.65;;;12.60;69.20;;;;;;5033788;28;20037;-72
2021/12/14 10:27:14;;;;;;;12.88;8.00;;;12.70;69.10;;;;;;5034518;28;20029;-65
2021/12/14 10:29:42;;;;;;;10.55;7.53;;;12.80;68.50;;;;;;5033793;28;20025;-68
2021/12/14 10:32:20;;;;;;;12.35;9.05;;;12.90;68.40;;;;;;5032911;28;20036;-66
2021/12/14 10:34:52;;;;;;;14.52;9.57;;;12.90;68.30;;;;;;5015343;28;20033;-69
2021/12/14 10:37:51;;;;;;;13.02;8.25;;;13.00;68.10;;;;;;5015545;28;20021;-69
2021/12/14 10:45:32;;;;;;;16.38;7.50;;;13.10;67.60;;;;;;5034002;28;20068;-74
2021/12/14 10:48:00;;;;;;;9.45;7.32;;;13.10;67.20;;;;;;5032914;28;20021;-69
2021/12/14 10:50:33;;;;;;;11.13;7.20;;;13.00;67.30;;;;;;5033440;28;20030;-74
2021/12/14 10:53:01;;;;;;;9.68;7.55;;;12.80;67.80;;;;;;5033529;28;20037;-68
2021/12/14 10:55:39;;;;;;;14.48;7.50;;;12.80;68.20;;;;;;5016000;28;20386;-73
2021/12/14 10:58:07;;;;;;;10.80;7.40;;;12.80;68.10;;;;;;5015203;28;20144;-64
2021/12/14 11:00:51;;;;;;;11.73;7.07;;;12.80;68.20;;;;;;5032968;28;20037;-68
2021/12/14 11:03:25;;;;;;;;;;;12.80;68.10;;;;;;5033595;28;20111;-69
2021/12/14 11:05:56;;;;;;;8.98;6.20;;;12.80;68.20;;;;;;5014282;28;19905;-72
2021/12/14 11:08:42;;;;;;;9.25;6.43;;;12.70;68.30;;;;;;5032911;28;20033;-72
2021/12/14 11:11:18;;;;;;;9.90;6.70;;;12.70;68.30;;;;;;5015045;28;20026;-69
2021/12/14 11:13:53;;;;;;;9.38;7.20;;;12.60;68.50;;;;;;5032320;28;20068;-72
2021/12/14 11:19:35;;;;;;;10.57;7.57;;;12.60;68.90;;;;;;5032561;28;20035;-67
2021/12/14 11:22:16;;;;;;;13.50;7.80;;;12.60;68.90;;;;;;5013889;28;20021;-68
2021/12/14 11:24:57;;;;;;;12.20;7.80;;;12.70;68.90;;;;;;5014272;28;20035;-69
2021/12/14 11:27:52;;;;;;;10.90;7.35;;;12.70;68.70;;;;;;5032251;28;20040;-77
2021/12/14 11:30:27;;;;;;;11.73;7.50;;;12.60;68.70;;;;;;5032805;28;20071;-77
2021/12/14 11:33:32;;;;;;;12.43;7.93;;;12.60;68.80;;;;;;5013718;28;20116;-67
2021/12/14 11:36:17;;;;;;;10.57;7.30;;;12.60;68.80;;;;;;5027303;28;20134;-66
2021/12/14 11:39:08;;;;;;;11.38;8.02;;;12.60;68.90;;;;;;5013302;28;20029;-68
2021/12/14 11:41:50;;;;;;;10.38;7.22;;;12.60;68.90;;;;;;5013852;28;20448;-69
2021/12/14 11:44:28;;;;;;;14.52;9.05;;;12.70;68.90;;;;;;5013969;28;20430;-67
2021/12/14 11:47:33;;;;;;;47.67;12.32;;;12.80;69.00;;;;;;5013734;28;20025;-70
2021/12/14 11:49:58;;;;;;;12.77;8.25;;;12.80;68.50;;;;;;5032125;28;20057;-72
2021/12/14 11:52:42;;;;;;;17.33;9.05;;;12.90;68.30;;;;;;5015630;28;20025;-76
2021/12/14 11:55:19;;;;;;;18.88;9.93;;;12.80;68.30;;;;;;5013965;28;20060;-75
2021/12/14 11:57:45;;;;;;;17.42;8.30;;;12.90;68.30;;;;;;5031806;28;20048;-75
2021/12/14 12:00:18;;;;;;;15.82;9.80;;;13.00;68.40;;;;;;5013922;28;20029;-72
2021/12/14 12:02:44;;;;;;;12.87;7.50;;;13.00;68.30;;;;;;5013758;28;20091;-69
2021/12/14 12:05:17;;;;;;;17.50;7.43;;;13.10;68.00;;;;;;5014266;28;20033;-64
2021/12/14 12:10:42;;;;;;;9.38;6.35;;;13.20;67.70;;;;;;5031498;28;20032;-72
2021/12/14 12:13:08;;;;;;;10.65;8.07;;;13.10;67.60;;;;;;5031304;28;20486;-65
2021/12/14 12:15:44;;;;;;;14.25;7.68;;;13.10;67.80;;;;;;5031351;28;20520;-65
2021/12/14 12:18:10;;;;;;;10.63;7.18;;;13.10;67.40;;;;;;5014293;28;20078;-73
2021/12/14 12:20:38;;;;;;;14.55;6.75;;;13.10;67.60;;;;;;5014099;28;20030;-71
2021/12/14 12:23:13;;;;;;;8.05;5.63;;;13.20;67.70;;;;;;5030816;28;20030;-72
2021/12/14 12:26:00;;;;;;;10.55;5.97;;;13.20;67.40;;;;;;5031927;28;20026;-68
2021/12/14 12:28:33;;;;;;;9.65;7.43;;;13.20;67.20;;;;;;5013919;28;20025;-71
2021/12/14 12:31:11;;;;;;;21.23;13.02;;;13.20;67.30;;;;;;5013612;28;20079;-64
2021/12/14 12:33:45;;;;;;;37.15;20.05;;;13.20;67.40;;;;;;5015295;28;20033;-70
2021/12/14 12:36:11;;;;;;;33.97;20.02;;;13.20;67.60;;;;;;5031625;28;20052;-62
2021/12/14 12:38:48;;;;;;;38.42;18.17;;;13.10;68.10;;;;;;5031270;28;20065;-72
2021/12/14 12:41:24;;;;;;;26.35;17.13;;;13.10;68.50;;;;;;5031975;28;20026;-71
2021/12/14 12:43:53;;;;;;;28.17;16.73;;;13.00;68.20;;;;;;5031293;28;20021;-65
2021/12/14 12:46:45;;;;;;;31.48;18.20;;;12.90;68.70;;;;;;5013745;28;20084;-68
2021/12/14 12:49:33;;;;;;;28.42;19.00;;;12.80;68.80;;;;;;5013411;28;20033;-75
2021/12/14 12:52:10;;;;;;;30.23;19.05;;;12.80;69.00;;;;;;5013068;28;20029;-68
2021/12/14 12:54:56;;;;;;;29.23;18.38;;;12.90;69.30;;;;;;5031300;28;20037;-67
2021/12/14 12:57:43;;;;;;;27.02;18.40;;;12.90;69.10;;;;;;5013708;28;20539;-65
2021/12/14 13:00:18;;;;;;;27.42;19.50;;;12.90;68.90;;;;;;5012720;28;20021;-67
2021/12/14 13:02:47;;;;;;;25.80;18.70;;;13.00;69.00;;;;;;5012345;28;20433;-64
2021/12/14 13:05:37;;;;;;;28.20;19.50;;;13.00;68.80;;;;;;5031374;28;20030;-64
2021/12/14 13:08:09;;;;;;;31.15;19.88;;;13.00;68.70;;;;;;5033561;28;20033;-71
2021/12/14 13:10:38;;;;;;;29.98;20.38;;;12.90;68.80;;;;;;5034814;28;20021;-70
2021/12/14 13:13:21;;;;;;;32.25;21.10;;;12.90;69.00;;;;;;5033916;28;20069;-73
2021/12/14 13:15:54;;;;;;;31.58;21.05;;;12.90;68.80;;;;;;5034241;28;20026;-67
2021/12/14 13:18:44;;;;;;;31.75;21.42;;;12.90;69.00;;;;;;5035152;28;20112;-72
2021/12/14 13:21:13;;;;;;;27.60;18.30;;;12.90;69.10;;;;;;5034428;28;20109;-68
2021/12/14 13:23:54;;;;;;;30.48;18.58;;;13.00;69.00;;;;;;5017565;28;20127;-66
2021/12/14 13:27:05;;;;;;;35.25;18.55;;;12.90;68.70;;;;;;5017054;28;20033;-69
2021/12/14 13:29:40;;;;;;;28.35;18.00;;;12.90;68.90;;;;;;4991284;28;20053;-65
2021/12/14 13:32:17;;;;;;;31.58;20.15;;;12.80;69.10;;;;;;5034683;28;20037;-70
2021/12/14 13:34:46;;;;;;;29.05;19.27;;;12.90;69.20;;;;;;5033958;28;20026;-66
2021/12/14 13:37:16;;;;;;;31.27;19.85;;;13.00;69.00;;;;;;5016144;28;20111;-64
2021/12/14 13:39:42;;;;;;;32.78;19.92;;;12.90;68.80;;;;;;5033695;28;20026;-69
2021/12/14 13:42:16;;;;;;;31.23;20.50;;;12.90;68.90;;;;;;5032836;28;20021;-74
2021/12/14 13:44:51;;;;;;;29.95;20.63;;;12.80;68.90;;;;;;5016630;28;20042;-70
2021/12/14 13:47:21;;;;;;;33.20;18.48;;;12.70;69.10;;;;;;5034435;28;20026;-68
2021/12/14 13:49:47;;;;;;;31.77;19.48;;;12.70;69.40;;;;;;5033772;28;20025;-66
2021/12/14 13:52:15;;;;;;;26.88;19.27;;;12.60;69.70;;;;;;5035014;28;20121;-70